Latest Weather Observations for Narrandera Airport

IDN60801

Issued at 6:02 pm EDT Tuesday 21 February 2017 (issued every 30 minutes, with the page automatically refreshed every 10 minutes)

About weather observations | Map of weather stations | Latest weather observations for NSW | Other Formats
Station Details ID: 074148 Name: NARRANDERA AIRPORT AWS Lat: -34.70 Lon: 146.51 Height: 145.0 m
Data from the previous 72 hours. | See also: Recent months at Narrandera Airport
Date/Time
EDT
Temp
°C
App
Temp
°C
Dew
Point
°C
Rel
Hum
%
Delta-T
°C
Wind Press
QNH
hPa
Press
MSL
hPa
Rain since
9am
mm
Dir  Spd
km/h
Gust
km/h
Spd
kts
Gust
kts
21/06:00pm 27.2 22.9 0.8 18 12.6 SE 13 13 7 7 1016.9 1016.2 -
21/05:30pm 27.5 24.5 1.1 18 12.7 E 6 15 3 8 1017.2 1016.5 0.0
21/05:00pm 27.5 24.4 1.1 18 12.7 NE 7 13 4 7 1017.3 1016.6 0.0
21/04:30pm 27.3 22.9 0.1 17 12.8 S 13 20 7 11 1017.7 1017.0 0.0
21/04:00pm 27.1 23.6 1.5 19 12.4 ESE 9 15 5 8 1018.0 1017.3 0.0
21/03:30pm 27.1 23.3 1.5 19 12.4 SSW 11 15 6 8 1018.3 1017.6 0.0
21/03:00pm 26.3 23.0 2.3 21 11.7 SW 9 19 5 10 1018.9 1018.2 0.0
21/02:30pm 25.5 21.8 0.2 19 11.8 S 9 19 5 10 1019.6 1018.8 0.0
21/02:00pm 25.3 21.1 1.4 21 11.4 SSW 13 20 7 11 1019.7 1018.9 0.0
21/01:30pm 24.6 21.1 1.5 22 11.0 SW 9 17 5 9 1020.0 1019.2 0.0
21/01:00pm 24.1 19.9 1.7 23 10.6 SW 13 20 7 11 1020.4 1019.6 0.0
21/12:30pm 23.8 19.7 2.0 24 10.4 SW 13 22 7 12 1020.8 1020.0 0.0
21/12:00pm 23.6 20.1 3.5 27 9.8 S 11 17 6 9 1021.2 1020.4 0.0
21/11:30am 23.3 20.5 3.3 27 9.7 WSW 7 19 4 10 1021.4 1020.6 0.0
21/11:00am 22.3 18.6 2.4 27 9.4 S 11 17 6 9 1021.8 1021.0 0.0
21/10:30am 21.8 18.6 3.0 29 9.0 ESE 9 17 5 9 1021.8 1021.0 0.0
21/10:00am 21.1 18.3 2.9 30 8.6 ENE 7 13 4 7 1021.8 1021.0 0.0
21/09:30am 20.5 17.5 4.1 34 7.9 E 9 13 5 7 1021.6 1020.8 0.0
21/09:00am 17.8 16.8 5.7 45 5.9 CALM 0 6 0 3 1021.3 1020.5 0.0
21/08:30am 15.5 14.4 5.1 50 5.0 CALM 0 0 0 0 1020.9 1020.1 0.0
21/08:00am 12.0 11.1 6.1 67 2.8 CALM 0 0 0 0 1020.4 1019.6 0.0
21/07:30am 9.8 8.8 5.8 76 1.8 CALM 0 0 0 0 1020.0 1019.2 0.0
21/07:00am 8.4 7.2 4.8 78 1.6 CALM 0 0 0 0 1019.7 1018.9 0.0
21/06:30am 8.5 5.7 5.1 79 1.5 S 9 13 5 7 1019.2 1018.5 0.0
21/06:00am 7.6 6.2 3.6 76 1.7 CALM 0 0 0 0 1018.7 1018.0 0.0
21/05:30am 7.8 6.5 4.2 78 1.6 CALM 0 0 0 0 1018.3 1017.6 0.0
21/05:00am 8.3 7.0 4.1 75 1.8 CALM 0 0 0 0 1018.3 1017.6 0.0
21/04:30am 8.3 6.9 3.8 73 2.0 CALM 0 0 0 0 1018.2 1017.5 0.0
21/04:00am 8.5 7.2 4.1 74 1.9 CALM 0 0 0 0 1018.3 1017.6 0.0
21/03:30am 8.8 7.5 4.0 72 2.1 CALM 0 0 0 0 1018.2 1017.5 0.0
21/03:00am 9.4 8.0 3.8 68 2.5 CALM 0 6 0 3 1018.2 1017.5 0.0
21/02:30am 9.1 7.7 3.7 69 2.4 CALM 0 0 0 0 1018.2 1017.5 0.0
21/02:00am 9.9 8.6 3.9 66 2.7 CALM 0 0 0 0 1018.4 1017.7 0.0
21/01:30am 10.0 7.6 4.2 67 2.6 SE 6 7 3 4 1018.4 1017.7 0.0
21/01:00am 10.5 9.4 5.1 69 2.5 CALM 0 0 0 0 1018.7 1018.0 0.0
21/12:30am 11.5 10.1 3.5 58 3.6 CALM 0 0 0 0 1018.7 1018.0 0.0
21/12:00am 12.1 11.1 5.5 64 3.1 CALM 0 0 0 0 1018.6 1017.9 0.0
 
Date/Time
EDT
Temp
°C
App
Temp
°C
Dew
Point
°C
Rel
Hum
%
Delta-T
°C
Wind Press
QNH
hPa
Press
MSL
hPa
Rain since
9am
mm
Dir  Spd
km/h
Gust
km/h
Spd
kts
Gust
kts
20/11:30pm 12.3 10.9 3.5 55 3.9 CALM 0 0 0 0 1018.6 1017.9 0.0
20/11:00pm 13.2 11.8 3.3 51 4.4 CALM 0 0 0 0 1018.4 1017.7 0.0
20/10:30pm 14.2 12.9 3.9 50 4.7 CALM 0 0 0 0 1018.3 1017.6 0.0
20/10:00pm 15.2 14.1 4.9 50 4.9 CALM 0 0 0 0 1018.1 1017.4 0.0
20/09:30pm 15.8 13.0 2.9 42 5.9 S 7 9 4 5 1017.6 1016.9 0.0
20/09:00pm 17.1 14.3 3.1 39 6.5 SSW 7 9 4 5 1017.1 1016.4 0.0
20/08:30pm 18.6 15.4 2.9 35 7.3 S 9 9 5 5 1016.5 1015.8 0.0
20/08:00pm 19.8 16.2 3.1 33 7.9 SSW 11 15 6 8 1016.0 1015.2 0.0
20/07:30pm 21.2 17.2 3.0 30 8.7 SW 13 19 7 10 1015.6 1014.8 0.0
20/07:00pm 21.7 17.0 2.9 29 9.0 SSW 17 26 9 14 1015.2 1014.4 0.0
20/06:30pm 22.0 18.4 2.7 28 9.2 SSE 11 17 6 9 1014.9 1014.1 0.0
20/06:00pm 22.9 18.9 2.9 27 9.6 SW 13 20 7 11 1014.6 1013.8 0.0
20/05:30pm 23.3 19.0 3.3 27 9.7 WSW 15 30 8 16 1014.3 1013.5 0.0
20/05:00pm 23.0 18.9 2.5 26 9.8 S 13 26 7 14 1014.3 1013.5 0.0
20/04:30pm 22.6 17.8 2.7 27 9.5 WSW 17 22 9 12 1014.2 1013.4 0.0
20/04:00pm 22.8 18.5 3.4 28 9.4 SW 15 24 8 13 1014.3 1013.5 0.0
20/03:30pm 22.3 17.1 3.4 29 9.1 SSW 20 30 11 16 1014.3 1013.5 0.0
20/03:00pm 21.2 16.5 3.0 30 8.7 SW 17 30 9 16 1014.5 1013.7 0.0
20/02:30pm 20.9 15.7 3.6 32 8.3 SSW 20 33 11 18 1014.8 1014.0 0.0
20/02:00pm 20.7 16.0 3.0 31 8.4 SW 17 30 9 16 1015.0 1014.2 0.0
20/01:30pm 20.1 15.5 3.8 34 7.8 SW 17 32 9 17 1015.2 1014.4 0.0
20/01:00pm 18.7 13.6 3.3 36 7.2 SW 19 30 10 16 1015.5 1014.7 0.0
20/12:30pm 19.5 15.0 4.4 37 7.3 SW 17 26 9 14 1015.5 1014.7 0.0
20/12:00pm 18.8 13.2 5.3 41 6.6 SSW 24 35 13 19 1015.6 1014.8 0.0
20/11:30am 17.6 13.1 4.2 41 6.4 SW 17 24 9 13 1015.8 1015.0 0.0
20/11:00am 16.8 12.5 5.1 46 5.6 SW 17 26 9 14 1016.1 1015.3 0.0
20/10:30am 15.7 11.3 5.0 49 5.1 SW 17 26 9 14 1016.3 1015.6 0.0
20/10:00am 15.0 11.2 5.8 54 4.4 SW 15 22 8 12 1016.3 1015.6 0.0
20/09:30am 13.8 9.7 6.2 60 3.7 SW 17 24 9 13 1016.3 1015.6 0.0
20/09:00am 12.8 9.5 6.4 65 3.1 SW 13 20 7 11 1016.1 1015.3 0.0
20/08:30am 11.7 8.3 6.0 68 2.7 WSW 13 17 7 9 1015.9 1015.1 0.0
20/08:00am 10.7 7.7 6.1 73 2.2 W 11 17 6 9 1015.7 1014.9 0.0
20/07:30am 9.6 7.4 6.0 78 1.7 WSW 7 9 4 5 1015.2 1014.4 0.0
20/07:00am 9.2 6.9 5.9 80 1.5 WSW 7 11 4 6 1014.7 1013.9 0.0
20/06:30am 9.5 6.9 6.2 80 1.5 WSW 9 13 5 7 1014.1 1013.3 0.0
20/06:00am 9.8 6.9 6.3 79 1.6 WSW 11 15 6 8 1013.6 1012.8 0.0
20/05:30am 10.1 7.6 6.6 79 1.7 WSW 9 11 5 6 1013.4 1012.6 0.0
20/05:00am 10.4 7.9 6.7 78 1.8 WSW 9 11 5 6 1013.1 1012.3 0.0
20/04:30am 10.5 8.0 6.5 76 1.9 W 9 11 5 6 1012.9 1012.1 0.0
20/04:00am 11.3 8.8 6.6 73 2.2 WSW 9 13 5 7 1012.7 1011.9 0.0
20/03:30am 11.4 8.9 6.5 72 2.3 WSW 9 13 5 7 1012.7 1011.9 0.0
20/03:00am 11.5 9.4 6.6 72 2.3 W 7 7 4 4 1012.7 1011.9 0.0
20/02:30am 12.3 9.9 6.8 69 2.7 WSW 9 11 5 6 1012.6 1011.8 0.0
20/02:00am 12.6 10.6 7.3 70 2.6 WSW 7 11 4 6 1012.5 1011.7 0.0
20/01:30am 12.9 10.6 7.4 69 2.7 SW 9 11 5 6 1012.6 1011.8 0.0
20/01:00am 13.1 10.3 6.9 66 3.0 SSW 11 17 6 9 1012.7 1011.9 0.0
20/12:30am 13.2 8.9 6.8 65 3.1 S 19 26 10 14 1013.0 1012.2 0.0
20/12:00am 14.1 9.4 9.3 73 2.5 S 24 33 13 18 1012.8 1012.0 0.0
 
Date/Time
EDT
Temp
°C
App
Temp
°C
Dew
Point
°C
Rel
Hum
%
Delta-T
°C
Wind Press
QNH
hPa
Press
MSL
hPa
Rain since
9am
mm
Dir  Spd
km/h
Gust
km/h
Spd
kts
Gust
kts
19/11:30pm 15.4 12.0 9.1 66 3.3 SSW 17 24 9 13 1012.2 1011.5 0.0
19/11:00pm 15.6 11.7 8.8 64 3.5 SSW 19 26 10 14 1012.1 1011.4 0.0
19/10:30pm 17.4 12.7 7.7 53 4.9 SW 22 32 12 17 1011.8 1011.1 0.0
19/10:00pm 18.2 13.8 6.7 47 5.8 WSW 19 26 10 14 1011.4 1010.7 0.0
19/09:30pm 18.8 12.0 5.3 41 6.6 WSW 30 50 16 27 1011.1 1010.4 0.0
19/09:18pm 19.2 14.6 3.8 36 7.3 WNW 17 46 9 25 1010.9 1010.2 0.0
19/09:00pm 19.1 15.9 2.9 34 7.6 NW 9 13 5 7 1010.5 1009.8 0.0
19/08:30pm 19.2 15.2 2.6 33 7.7 WNW 13 20 7 11 1010.4 1009.7 0.0
19/08:00pm 19.3 15.2 2.2 32 7.9 WNW 13 19 7 10 1010.2 1009.5 0.0
19/07:30pm 20.2 14.9 2.1 30 8.4 W 19 28 10 15 1009.9 1009.1 0.0
19/07:00pm 21.2 15.8 2.5 29 8.8 W 20 30 11 16 1009.7 1008.9 0.0
19/06:30pm 21.1 14.9 1.9 28 8.9 WSW 24 37 13 20 1009.6 1008.8 0.0
19/06:00pm 22.2 17.3 1.8 26 9.6 W 17 32 9 17 1009.4 1008.6 0.0
19/05:30pm 22.6 15.5 1.6 25 9.8 W 28 39 15 21 1009.4 1008.6 0.0
19/05:00pm 22.5 16.6 1.5 25 9.8 WSW 22 35 12 19 1009.4 1008.6 0.0
19/04:30pm 23.2 17.7 2.1 25 10.0 WSW 20 32 11 17 1009.5 1008.7 0.0
19/04:00pm 23.0 17.3 0.8 23 10.3 W 20 32 11 17 1009.8 1009.0 0.0
19/03:30pm 22.8 16.9 1.8 25 9.9 W 22 33 12 18 1010.1 1009.3 0.0
19/03:00pm 22.8 18.1 3.4 28 9.4 W 17 26 9 14 1010.4 1009.7 0.0
19/02:30pm 21.2 16.4 2.5 29 8.8 WSW 17 26 9 14 1010.8 1010.1 0.0
19/02:00pm 21.5 16.7 2.7 29 8.9 WSW 17 32 9 17 1011.2 1010.5 0.0
19/01:30pm 21.4 16.5 2.2 28 9.0 WSW 17 30 9 16 1011.5 1010.8 0.0
19/01:00pm 20.5 15.3 2.3 30 8.5 WNW 19 28 10 15 1011.9 1011.2 0.0
19/12:30pm 19.5 14.2 1.9 31 8.1 W 19 32 10 17 1012.5 1011.7 0.0
19/12:00pm 19.8 14.4 2.6 32 8.0 W 20 32 11 17 1012.9 1012.1 0.0
19/11:30am 18.5 13.7 2.8 35 7.3 SW 17 24 9 13 1013.2 1012.4 0.0
19/11:00am 18.5 14.2 3.2 36 7.2 SW 15 22 8 12 1013.3 1012.5 0.0
19/10:30am 18.4 14.3 4.2 39 6.8 WSW 15 22 8 12 1013.2 1012.4 0.0
19/10:00am 17.2 13.5 4.5 43 6.1 SSW 13 20 7 11 1013.1 1012.3 0.0
19/09:30am 16.4 13.2 5.1 47 5.4 SW 11 17 6 9 1012.9 1012.1 0.0
19/09:00am 14.6 11.7 4.9 52 4.6 SW 9 13 5 7 1012.8 1012.0 0.0
19/08:30am 13.2 10.6 4.4 55 4.1 W 7 11 4 6 1012.9 1012.1 0.0
19/08:00am 11.6 8.9 3.6 58 3.6 W 7 11 4 6 1012.5 1011.7 0.0
19/07:30am 9.5 7.9 2.4 61 3.0 CALM 0 4 0 2 1012.1 1011.4 0.0
19/07:00am 8.0 6.4 2.7 69 2.2 CALM 0 0 0 0 1011.7 1011.0 0.0
19/06:30am 8.2 6.6 2.4 67 2.4 CALM 0 0 0 0 1011.4 1010.7 0.0
19/06:00am 8.7 7.0 1.8 62 2.9 CALM 0 0 0 0 1011.5 1010.8 0.0
19/05:30am 9.2 7.2 2.1 61 3.0 WSW 2 9 1 5 1011.2 1010.5 0.0
19/05:00am 9.7 7.6 1.6 57 3.4 NNW 2 7 1 4 1010.8 1010.1 0.0
19/04:30am 9.7 8.0 1.8 58 3.3 CALM 0 0 0 0 1010.8 1010.1 0.0
19/04:00am 11.4 8.5 1.4 50 4.2 NNW 6 7 3 4 1011.0 1010.3 0.0
19/03:30am 11.8 9.6 0.9 47 4.6 WSW 2 7 1 4 1011.0 1010.3 0.0
19/03:00am 13.1 9.6 1.5 45 5.0 SW 9 13 5 7 1011.1 1010.4 0.0
19/02:30am 13.5 9.9 0.9 42 5.4 SW 9 13 5 7 1011.1 1010.4 0.0
19/02:00am 14.1 10.1 0.4 39 5.8 WSW 11 17 6 9 1011.2 1010.5 0.0
19/01:30am 14.5 10.5 0.4 38 6.0 WSW 11 17 6 9 1011.4 1010.7 0.0
19/01:00am 14.4 11.1 -0.1 37 6.1 WSW 7 11 4 6 1011.6 1010.9 0.0
19/12:30am 15.4 11.6 -0.4 34 6.7 WSW 9 11 5 6 1011.5 1010.8 0.0
19/12:00am 15.8 12.4 -0.4 33 6.9 SW 7 11 4 6 1011.5 1010.8 0.0
 
Date/Time
EDT
Temp
°C
App
Temp
°C
Dew
Point
°C
Rel
Hum
%
Delta-T
°C
Wind Press
QNH
hPa
Press
MSL
hPa
Rain since
9am
mm
Dir  Spd
km/h
Gust
km/h
Spd
kts
Gust
kts
18/11:30pm 16.5 12.7 -0.7 31 7.3 SW 9 13 5 7 1011.3 1010.6 0.0
18/11:00pm 17.2 13.4 -1.0 29 7.7 WSW 9 15 5 8 1011.2 1010.5 0.0
18/10:30pm 17.7 13.1 -1.0 28 8.0 WSW 13 17 7 9 1011.1 1010.4 0.0
18/10:00pm 18.2 14.4 -0.6 28 8.1 WSW 9 15 5 8 1011.0 1010.3 0.0
18/09:30pm 19.1 14.6 -0.3 27 8.5 SW 13 22 7 12 1010.7 1010.0 0.0
18/09:00pm 19.8 15.4 0.3 27 8.7 WSW 13 22 7 12 1010.4 1009.7 0.0
18/08:30pm 20.3 16.4 1.2 28 8.7 WSW 11 17 6 9 1010.2 1009.5 0.0
18/08:00pm 20.7 16.5 1.6 28 8.8 W 13 17 7 9 1010.0 1009.2 0.0
18/07:30pm 21.2 17.1 2.0 28 9.0 WSW 13 20 7 11 1009.7 1008.9 0.0
18/07:00pm 21.2 16.4 2.5 29 8.8 WSW 17 24 9 13 1009.6 1008.8 0.0
18/06:30pm 21.5 16.3 2.7 29 8.9 SW 19 28 10 15 1009.5 1008.7 0.0

Other Formats:

Comma delimited format used in spreadsheet applications
http://www.bom.gov.au/fwo/IDN60801/IDN60801.95706.axf

JavaScript Object Notation format (JSON) in row-major order
http://www.bom.gov.au/fwo/IDN60801/IDN60801.95706.json